createdAt,value
2023-05-28T00:00:30.803Z,100280.02
2023-05-28T00:01:34.316Z,100277.66
2023-05-28T00:02:38.255Z,100275.56
2023-05-28T00:03:43.122Z,100279.09
2023-05-28T00:04:48.714Z,100279.22
2023-05-28T00:05:52.902Z,100280.65
2023-05-28T00:06:57.480Z,100280.78
2023-05-28T00:08:02.696Z,100286.00
2023-05-28T00:09:06.085Z,100278.02
2023-05-28T00:10:10.285Z,100280.70
2023-05-28T00:11:13.800Z,100273.12
2023-05-28T00:12:22.021Z,100280.11
2023-05-28T00:13:25.501Z,100279.14
2023-05-28T00:14:29.026Z,100279.98
2023-05-28T00:15:31.899Z,100280.11
2023-05-28T00:16:37.291Z,100280.97
2023-05-28T00:17:40.211Z,100281.30
2023-05-28T00:18:42.562Z,100289.58
2023-05-28T00:19:45.628Z,100286.84
2023-05-28T00:20:57.564Z,100280.80
2023-05-28T00:22:01.572Z,100285.73
2023-05-28T00:23:05.454Z,100284.36
2023-05-28T00:24:10.228Z,100282.98
2023-05-28T00:25:12.953Z,100282.73
2023-05-28T00:26:17.074Z,100279.83
2023-05-28T00:27:25.117Z,100285.04
2023-05-28T00:28:28.480Z,100281.13
2023-05-28T00:29:32.198Z,100282.27
2023-05-28T00:30:35.798Z,100287.16
2023-05-28T00:31:40.362Z,100284.06
2023-05-28T00:32:44.141Z,100282.10
2023-05-28T00:33:47.456Z,100290.69
2023-05-28T00:34:51.911Z,100294.94
2023-05-28T00:35:58.044Z,100284.32
2023-05-28T00:37:06.035Z,100290.13
2023-05-28T00:38:09.519Z,100290.39
2023-05-28T00:39:17.182Z,100288.95
2023-05-28T00:40:19.865Z,100286.41
2023-05-28T00:41:24.953Z,100286.73
2023-05-28T00:42:31.376Z,100287.64
2023-05-28T00:43:37.277Z,100291.37
2023-05-28T00:44:42.883Z,100288.27
2023-05-28T00:45:46.935Z,100290.94
2023-05-28T00:46:54.714Z,100293.80
2023-05-28T00:47:58.384Z,100288.78
2023-05-28T00:49:03.149Z,100291.58
2023-05-28T00:50:07.914Z,100296.94
2023-05-28T00:51:12.258Z,100289.80
2023-05-28T00:52:15.975Z,100297.27
2023-05-28T00:53:20.923Z,100299.09
2023-05-28T00:54:26.187Z,100291.50
2023-05-28T00:55:30.045Z,100300.25
2023-05-28T00:56:33.228Z,100300.38
2023-05-28T00:57:39.418Z,100298.03
2023-05-28T00:58:45.387Z,100294.50
2023-05-28T00:59:48.548Z,100295.95
2023-05-28T01:00:55.112Z,100296.67
2023-05-28T01:02:00.677Z,100291.95
2023-05-28T01:03:04.550Z,100296.55
2023-05-28T01:04:09.367Z,100300.64
2023-05-28T01:05:14.120Z,100305.52
2023-05-28T01:06:18.045Z,100302.72
2023-05-28T01:07:20.812Z,100303.31
2023-05-28T01:08:25.581Z,100306.24
2023-05-28T01:09:29.172Z,100299.55
2023-05-28T01:10:35.646Z,100306.30
2023-05-28T01:11:41.817Z,100303.31
2023-05-28T01:12:46.284Z,100305.39
2023-05-28T01:13:50.284Z,100303.38
2023-05-28T01:14:55.695Z,100300.30
2023-05-28T01:16:00.150Z,100306.91
2023-05-28T01:17:04.913Z,100308.20
2023-05-28T01:18:10.343Z,100303.82
2023-05-28T01:19:20.561Z,100313.89
2023-05-28T01:20:24.144Z,100313.04
2023-05-28T01:21:30.326Z,100314.45
2023-05-28T01:22:37.466Z,100314.50
2023-05-28T01:23:50.199Z,100316.94
2023-05-28T01:24:53.963Z,100308.58
2023-05-28T01:26:01.745Z,100313.42
2023-05-28T01:27:05.994Z,100322.81
2023-05-28T01:28:15.870Z,100317.06
2023-05-28T01:29:21.145Z,100307.63
2023-05-28T01:30:23.620Z,100310.63
2023-05-28T01:31:27.237Z,100318.89
2023-05-28T01:32:31.904Z,100313.90
2023-05-28T01:33:37.357Z,100311.42
2023-05-28T01:34:41.084Z,100311.70
2023-05-28T01:35:44.906Z,100321.56
2023-05-28T01:36:50.933Z,100311.84
2023-05-28T01:37:57.946Z,100321.23
2023-05-28T01:39:04.064Z,100317.11
2023-05-28T01:40:08.748Z,100319.14
2023-05-28T01:41:14.224Z,100321.11
2023-05-28T01:42:18.984Z,100318.04
2023-05-28T01:43:21.756Z,100314.80
2023-05-28T01:44:24.524Z,100317.80
2023-05-28T01:45:29.938Z,100316.70
2023-05-28T01:46:33.536Z,100324.47
2023-05-28T01:47:36.967Z,100328.85
2023-05-28T01:48:41.752Z,100315.64
2023-05-28T01:49:45.494Z,100315.64
2023-05-28T01:50:49.124Z,100319.02
2023-05-28T01:51:54.932Z,100324.89
2023-05-28T01:53:01.240Z,100322.45
2023-05-28T01:54:06.623Z,100325.97
2023-05-28T01:55:11.691Z,100321.36
2023-05-28T01:56:14.367Z,100325.01
2023-05-28T01:57:19.427Z,100336.78
2023-05-28T01:58:23.033Z,100327.67
2023-05-28T01:59:27.310Z,100328.16
2023-05-28T02:00:30.799Z,100337.76
2023-05-28T02:01:36.182Z,100335.20
2023-05-28T02:02:40.290Z,100339.79
2023-05-28T02:03:46.055Z,100339.94
2023-05-28T02:04:52.437Z,100340.67
2023-05-28T02:05:56.244Z,100339.22
2023-05-28T02:07:00.275Z,100343.95
2023-05-28T02:08:03.543Z,100342.47
2023-05-28T02:09:08.013Z,100342.47
2023-05-28T02:10:11.442Z,100348.80
2023-05-28T02:11:15.225Z,100348.08
2023-05-28T02:12:18.732Z,100347.72
2023-05-28T02:13:22.433Z,100346.38
2023-05-28T02:14:27.105Z,100347.47
2023-05-28T02:15:30.612Z,100349.17
2023-05-28T02:16:35.293Z,100352.33
2023-05-28T02:17:39.532Z,100346.98
2023-05-28T02:18:43.325Z,100341.89
2023-05-28T02:19:47.295Z,100345.98
2023-05-28T02:20:50.873Z,100347.72
2023-05-28T02:21:55.420Z,100342.73
2023-05-28T02:23:01.220Z,100350.51
2023-05-28T02:24:05.024Z,100372.48
2023-05-28T02:25:08.947Z,100351.45
2023-05-28T02:26:12.773Z,100346.65
2023-05-28T02:27:17.505Z,100351.48
2023-05-28T02:28:21.343Z,100343.10
2023-05-28T02:29:24.841Z,100342.37
2023-05-28T02:30:31.491Z,100340.91
2023-05-28T02:31:35.134Z,100340.58
2023-05-28T02:32:38.757Z,100345.80
2023-05-28T02:33:46.256Z,100348.71
2023-05-28T02:34:51.137Z,100356.70
2023-05-28T02:35:56.559Z,100349.17
2023-05-28T02:37:03.071Z,100355.73
2023-05-28T02:38:08.002Z,100351.14
2023-05-28T02:39:12.608Z,100350.02
2023-05-28T02:40:17.789Z,100349.32
2023-05-28T02:41:25.428Z,100348.47
2023-05-28T02:42:30.536Z,100354.39
2023-05-28T02:43:34.014Z,100356.06
2023-05-28T02:44:39.932Z,100349.45
2023-05-28T02:45:53.364Z,100357.70
2023-05-28T02:46:59.027Z,100350.55
2023-05-28T02:48:05.196Z,100346.59
2023-05-28T02:49:09.180Z,100347.44
2023-05-28T02:50:12.280Z,100345.25
2023-05-28T02:51:23.315Z,100339.94
2023-05-28T02:52:31.632Z,100345.16
2023-05-28T02:53:36.400Z,100339.05
2023-05-28T02:54:40.293Z,100344.95
2023-05-28T02:55:44.231Z,100340.38
2023-05-28T02:56:50.758Z,100342.20
2023-05-28T02:57:54.572Z,100345.20
2023-05-28T02:58:58.910Z,100347.75
2023-05-28T03:00:02.185Z,100352.42
2023-05-28T03:01:05.967Z,100345.37
2023-05-28T03:02:09.865Z,100350.25
2023-05-28T03:03:13.596Z,100350.59
2023-05-28T03:04:18.940Z,100357.12
2023-05-28T03:05:25.917Z,100356.42
2023-05-28T03:06:29.489Z,100353.50
2023-05-28T03:07:32.482Z,100362.13
2023-05-28T03:08:38.899Z,100355.00
2023-05-28T03:09:43.146Z,100353.88
2023-05-28T03:10:46.654Z,100358.05
2023-05-28T03:11:51.402Z,100351.81
2023-05-28T03:12:54.871Z,100353.81
2023-05-28T03:13:58.126Z,100365.95
2023-05-28T03:15:01.300Z,100360.77
2023-05-28T03:16:04.852Z,100365.30
2023-05-28T03:17:10.297Z,100356.48
2023-05-28T03:18:15.660Z,100374.67
2023-05-28T03:19:20.227Z,100365.92
2023-05-28T03:20:26.023Z,100373.52
2023-05-28T03:21:29.564Z,100379.21
2023-05-28T03:22:36.938Z,100378.06
2023-05-28T03:23:44.170Z,100380.34
2023-05-28T03:24:48.443Z,100383.30
2023-05-28T03:25:54.224Z,100377.66
2023-05-28T03:27:04.127Z,100392.04
2023-05-28T03:28:08.046Z,100386.63
2023-05-28T03:29:19.246Z,100394.00
2023-05-28T03:30:26.719Z,100393.55
2023-05-28T03:31:39.138Z,100388.78
2023-05-28T03:32:42.753Z,100388.94
2023-05-28T03:33:47.567Z,100387.60
2023-05-28T03:34:52.950Z,100390.16
2023-05-28T03:36:04.320Z,100386.15
2023-05-28T03:37:07.626Z,100384.45
2023-05-28T03:38:12.567Z,100384.92
2023-05-28T03:39:18.983Z,100382.94
2023-05-28T03:40:23.124Z,100384.64
2023-05-28T03:41:30.498Z,100384.52
2023-05-28T03:42:35.641Z,100388.11
2023-05-28T03:43:39.278Z,100390.78
2023-05-28T03:44:46.445Z,100398.48
2023-05-28T03:45:49.947Z,100391.44
2023-05-28T03:46:55.086Z,100397.39
2023-05-28T03:47:59.013Z,100393.58
2023-05-28T03:49:02.546Z,100400.50
2023-05-28T03:50:06.683Z,100389.81
2023-05-28T03:51:12.054Z,100391.63
2023-05-28T03:52:15.668Z,100388.83
2023-05-28T03:53:20.942Z,100396.67
2023-05-28T03:54:24.550Z,100387.30
2023-05-28T03:55:27.943Z,100395.83
2023-05-28T03:56:35.438Z,100391.14
2023-05-28T03:57:43.029Z,100395.35
2023-05-28T03:58:48.687Z,100397.61
2023-05-28T03:59:51.300Z,100395.64
2023-05-28T04:00:54.697Z,100391.39
2023-05-28T04:01:57.586Z,100394.91
2023-05-28T04:03:01.185Z,100401.91
2023-05-28T04:04:05.917Z,100404.52
2023-05-28T04:05:13.678Z,100410.14
2023-05-28T04:06:17.555Z,100403.63
2023-05-28T04:07:21.971Z,100407.38
2023-05-28T04:08:26.851Z,100412.40
2023-05-28T04:09:30.965Z,100413.23
2023-05-28T04:10:34.281Z,100409.30
2023-05-28T04:11:39.863Z,100412.31
2023-05-28T04:12:44.397Z,100399.73
2023-05-28T04:13:47.798Z,100405.55
2023-05-28T04:14:52.668Z,100412.06
2023-05-28T04:15:56.173Z,100402.92
2023-05-28T04:17:01.672Z,100407.80
2023-05-28T04:18:04.639Z,100412.89
2023-05-28T04:19:10.102Z,100407.61
2023-05-28T04:20:14.178Z,100419.19
2023-05-28T04:21:17.768Z,100419.57
2023-05-28T04:22:22.948Z,100418.78
2023-05-28T04:23:26.558Z,100420.21
2023-05-28T04:24:29.794Z,100423.11
2023-05-28T04:25:34.186Z,100424.73
2023-05-28T04:26:38.893Z,100425.11
2023-05-28T04:27:44.451Z,100437.52
2023-05-28T04:28:48.495Z,100436.80
2023-05-28T04:29:55.058Z,100431.92
2023-05-28T04:31:00.322Z,100434.56
2023-05-28T04:32:07.361Z,100453.05
2023-05-28T04:33:11.900Z,100451.27
2023-05-28T04:34:18.003Z,100451.80
2023-05-28T04:35:23.022Z,100470.41
2023-05-28T04:36:29.406Z,100465.98
2023-05-28T04:37:34.836Z,100469.28
2023-05-28T04:38:39.336Z,100477.03
2023-05-28T04:39:42.538Z,100482.45
2023-05-28T04:40:46.505Z,100486.48
2023-05-28T04:41:49.797Z,100481.88
2023-05-28T04:42:57.218Z,100491.33
2023-05-28T04:44:02.283Z,100499.09
2023-05-28T04:45:06.687Z,100487.38
2023-05-28T04:46:13.375Z,100492.48
2023-05-28T04:47:16.880Z,100499.84
2023-05-28T04:48:23.822Z,100503.57
2023-05-28T04:49:27.526Z,100505.20
2023-05-28T04:50:32.830Z,100511.66
2023-05-28T04:51:38.663Z,100514.41
2023-05-28T04:52:45.288Z,100513.73
2023-05-28T04:53:49.807Z,100522.72
2023-05-28T04:54:54.046Z,100524.20
2023-05-28T04:55:57.140Z,100518.45
2023-05-28T04:57:03.541Z,100515.06
2023-05-28T04:58:06.968Z,100529.73
2023-05-28T04:59:10.966Z,100525.13
2023-05-28T05:00:19.158Z,100534.87
2023-05-28T05:01:24.979Z,100529.41
2023-05-28T05:02:30.575Z,100529.55
2023-05-28T05:03:33.920Z,100528.09
2023-05-28T05:04:38.874Z,100530.15
2023-05-28T05:05:42.577Z,100541.69
2023-05-28T05:06:46.074Z,100534.93
2023-05-28T05:07:49.901Z,100532.66
2023-05-28T05:08:53.418Z,100532.42
2023-05-28T05:09:56.958Z,100542.92
2023-05-28T05:11:04.121Z,100545.72
2023-05-28T05:12:10.857Z,100546.58
2023-05-28T05:13:13.950Z,100540.89
2023-05-28T05:14:20.143Z,100542.77
2023-05-28T05:15:24.415Z,100539.04
2023-05-28T05:16:27.625Z,100539.40
2023-05-28T05:17:31.063Z,100540.76
2023-05-28T05:18:35.940Z,100535.39
2023-05-28T05:19:41.992Z,100544.25
2023-05-28T05:20:45.407Z,100545.72
2023-05-28T05:21:52.606Z,100543.77
2023-05-28T05:22:58.940Z,100538.39
2023-05-28T05:24:02.101Z,100542.92
2023-05-28T05:25:05.992Z,100558.98
2023-05-28T05:26:14.524Z,100553.10
2023-05-28T05:27:18.722Z,100557.73
2023-05-28T05:28:23.827Z,100568.09
2023-05-28T05:29:28.609Z,100561.87
2023-05-28T05:30:31.987Z,100552.41
2023-05-28T05:31:37.555Z,100560.16
2023-05-28T05:32:43.788Z,100574.66
2023-05-28T05:33:50.052Z,100571.78
2023-05-28T05:35:16.551Z,100568.18
2023-05-28T05:36:33.830Z,100570.45
2023-05-28T05:38:55.438Z,100562.13
2023-05-28T05:40:18.457Z,100570.50
2023-05-28T05:41:29.695Z,100567.25
2023-05-28T05:42:52.547Z,100569.06
2023-05-28T05:43:56.777Z,100566.45
2023-05-28T05:45:04.194Z,100569.28
2023-05-28T05:46:07.878Z,100572.13
2023-05-28T05:47:12.231Z,100576.03
2023-05-28T05:48:16.139Z,100571.83
2023-05-28T05:49:20.070Z,100565.08
2023-05-28T05:50:23.766Z,100565.89
2023-05-28T05:51:27.512Z,100573.22
2023-05-28T05:52:31.160Z,100570.07
2023-05-28T05:53:38.263Z,100571.33
2023-05-28T05:54:41.767Z,100565.61
2023-05-28T05:55:46.764Z,100567.69
2023-05-28T05:56:58.907Z,100568.25
2023-05-28T05:58:03.771Z,100560.61
2023-05-28T05:59:07.215Z,100565.94
2023-05-28T06:00:13.918Z,100568.98
2023-05-28T06:01:19.918Z,100565.91
2023-05-28T06:02:24.181Z,100570.28
2023-05-28T06:03:29.679Z,100573.92
2023-05-28T06:04:39.163Z,100576.17
2023-05-28T06:05:59.156Z,100577.33
2023-05-28T06:07:06.712Z,100573.66
2023-05-28T06:08:21.663Z,100576.73
2023-05-28T06:09:28.771Z,100574.02
2023-05-28T06:10:33.562Z,100574.65
2023-05-28T06:11:37.326Z,100582.50
2023-05-28T06:12:41.879Z,100580.96
2023-05-28T06:13:49.284Z,100573.92
2023-05-28T06:14:53.374Z,100576.66
2023-05-28T06:15:57.560Z,100572.98
2023-05-28T06:17:01.393Z,100578.06
2023-05-28T06:18:08.629Z,100575.36
2023-05-28T06:19:12.245Z,100569.41
2023-05-28T06:20:19.522Z,100572.89
2023-05-28T06:21:23.018Z,100580.34
2023-05-28T06:22:28.476Z,100580.22
2023-05-28T06:23:35.290Z,100576.78
2023-05-28T06:24:41.451Z,100574.11
2023-05-28T06:25:47.843Z,100582.06
2023-05-28T06:26:53.807Z,100583.28
2023-05-28T06:27:59.828Z,100581.69
2023-05-28T06:29:05.156Z,100577.59
2023-05-28T06:30:09.925Z,100581.39
2023-05-28T06:31:13.772Z,100581.88
2023-05-28T06:32:18.071Z,100579.05
2023-05-28T06:33:25.744Z,100586.27
2023-05-28T06:34:29.988Z,100580.88
2023-05-28T06:35:36.775Z,100580.12
2023-05-28T06:36:42.801Z,100576.30
2023-05-28T06:37:46.269Z,100577.34
2023-05-28T06:38:49.112Z,100580.87
2023-05-28T06:39:52.830Z,100578.73
2023-05-28T06:40:56.771Z,100587.02
2023-05-28T06:42:02.774Z,100592.28
2023-05-28T06:43:17.455Z,100587.66
2023-05-28T06:44:43.868Z,100583.95
2023-05-28T06:45:49.428Z,100587.98
2023-05-28T06:46:52.887Z,100581.38
2023-05-28T06:47:57.133Z,100586.98
2023-05-28T06:49:02.560Z,100573.33
2023-05-28T06:50:06.083Z,100586.59
2023-05-28T06:51:10.976Z,100570.91
2023-05-28T06:52:14.379Z,100569.51
2023-05-28T06:53:18.670Z,100576.95
2023-05-28T06:54:21.748Z,100588.12
2023-05-28T06:55:25.780Z,100592.25
2023-05-28T06:56:32.669Z,100584.52
2023-05-28T06:57:55.837Z,100586.52
2023-05-28T06:59:02.826Z,100575.34
2023-05-28T07:00:23.468Z,100579.95
2023-05-28T07:01:29.389Z,100587.59
2023-05-28T07:03:54.246Z,100573.36
2023-05-28T07:05:00.318Z,100578.63
2023-05-28T07:06:07.007Z,100574.83
2023-05-28T07:07:10.409Z,100584.23
2023-05-28T07:08:15.118Z,100587.42
2023-05-28T07:09:18.392Z,100582.66
2023-05-28T07:10:21.118Z,100578.94
2023-05-28T07:11:24.727Z,100572.34
2023-05-28T07:12:28.122Z,100571.73
2023-05-28T07:13:33.844Z,100563.72
2023-05-28T07:14:38.629Z,100574.59
2023-05-28T07:15:42.501Z,100574.92
2023-05-28T07:16:46.606Z,100570.42
2023-05-28T07:17:51.843Z,100572.32
2023-05-28T07:18:57.781Z,100560.55
2023-05-28T07:20:02.924Z,100561.98
2023-05-28T07:21:09.945Z,100575.84
2023-05-28T07:22:15.334Z,100569.82
2023-05-28T07:23:21.569Z,100572.70
2023-05-28T07:24:25.895Z,100573.45
2023-05-28T07:25:29.092Z,100566.92
2023-05-28T07:26:32.695Z,100558.95
2023-05-28T07:27:36.936Z,100562.45
2023-05-28T07:28:41.900Z,100568.14
2023-05-28T07:29:45.604Z,100557.51
2023-05-28T07:30:50.935Z,100561.59
2023-05-28T07:31:56.099Z,100548.34
2023-05-28T07:33:01.408Z,100549.16
2023-05-28T07:34:05.678Z,100543.05
2023-05-28T07:35:15.152Z,100553.83
2023-05-28T07:36:22.734Z,100543.41
2023-05-28T07:37:25.711Z,100535.90
2023-05-28T07:38:29.007Z,100542.88
2023-05-28T07:39:34.103Z,100543.35
2023-05-28T07:40:37.165Z,100535.55
2023-05-28T07:41:42.980Z,100534.22
2023-05-28T07:43:03.333Z,100529.55
2023-05-28T07:44:08.353Z,100526.75
2023-05-28T07:45:12.602Z,100526.77
2023-05-28T07:46:18.490Z,100530.77
2023-05-28T07:47:24.035Z,100524.17
2023-05-28T07:48:47.555Z,100528.87
2023-05-28T07:50:02.028Z,100530.64
2023-05-28T07:51:08.438Z,100520.70
2023-05-28T07:52:14.048Z,100522.13
2023-05-28T07:53:21.109Z,100522.88
2023-05-28T07:54:24.790Z,100519.38
2023-05-28T07:56:43.529Z,100527.03
2023-05-28T07:57:48.896Z,100521.36
2023-05-28T07:58:54.125Z,100525.75
2023-05-28T07:59:58.654Z,100521.13
2023-05-28T08:01:01.609Z,100520.91
2023-05-28T08:02:06.995Z,100515.89
2023-05-28T08:03:14.201Z,100514.00
2023-05-28T08:04:22.757Z,100520.12
2023-05-28T08:05:29.786Z,100519.38
2023-05-28T08:06:35.874Z,100516.69
2023-05-28T08:07:42.750Z,100515.27
2023-05-28T08:08:46.002Z,100517.78
2023-05-28T08:09:48.471Z,100517.75
2023-05-28T08:10:54.993Z,100517.13
2023-05-28T08:11:58.707Z,100509.20
2023-05-28T08:13:03.881Z,100510.43
2023-05-28T08:14:07.490Z,100510.67
2023-05-28T08:15:10.892Z,100520.30
2023-05-28T08:16:14.762Z,100519.58
2023-05-28T08:17:27.329Z,100515.63
2023-05-28T08:18:32.642Z,100516.48
2023-05-28T08:19:39.432Z,100523.36
2023-05-28T08:20:44.729Z,100514.34
2023-05-28T08:21:52.810Z,100509.56
2023-05-28T08:22:56.712Z,100513.77
2023-05-28T08:24:01.222Z,100507.16
2023-05-28T08:25:06.574Z,100513.62
2023-05-28T08:26:11.958Z,100512.41
2023-05-28T08:27:15.296Z,100504.43
2023-05-28T08:28:19.803Z,100507.87
2023-05-28T08:29:26.008Z,100506.57
2023-05-28T08:30:30.883Z,100500.45
2023-05-28T08:31:37.869Z,100501.91
2023-05-28T08:32:45.989Z,100495.48
2023-05-28T08:33:49.850Z,100496.77
2023-05-28T08:34:54.504Z,100502.03
2023-05-28T08:35:57.893Z,100505.78
2023-05-28T08:37:03.412Z,100502.27
2023-05-28T08:38:08.878Z,100496.78
2023-05-28T08:39:14.133Z,100497.63
2023-05-28T08:40:18.636Z,100509.94
2023-05-28T08:41:24.435Z,100503.94
2023-05-28T08:42:28.241Z,100506.69
2023-05-28T08:43:33.430Z,100500.86
2023-05-28T08:44:37.434Z,100503.11
2023-05-28T08:45:42.195Z,100494.74
2023-05-28T08:46:47.962Z,100489.50
2023-05-28T08:47:52.893Z,100497.53
2023-05-28T08:48:59.583Z,100499.62
2023-05-28T08:50:07.702Z,100506.70
2023-05-28T08:51:13.608Z,100491.84
2023-05-28T08:52:20.876Z,100494.06
2023-05-28T08:53:27.180Z,100497.32
2023-05-28T08:54:31.695Z,100502.95
2023-05-28T08:55:36.319Z,100499.17
2023-05-28T08:56:41.986Z,100498.80
2023-05-28T08:57:47.247Z,100498.66
2023-05-28T08:58:56.034Z,100496.27
2023-05-28T09:00:02.945Z,100502.83
2023-05-28T09:01:08.286Z,100499.10
2023-05-28T09:02:17.903Z,100493.12
2023-05-28T09:03:21.616Z,100493.52
2023-05-28T09:04:29.990Z,100505.28
2023-05-28T09:05:34.509Z,100498.58
2023-05-28T09:06:41.325Z,100503.59
2023-05-28T09:07:46.806Z,100500.26
2023-05-28T09:08:50.332Z,100494.90
2023-05-28T09:09:59.079Z,100499.57
2023-05-28T09:11:16.014Z,100504.63
2023-05-28T09:12:22.423Z,100516.03
2023-05-28T09:13:27.724Z,100507.90
2023-05-28T09:14:31.662Z,100512.59
2023-05-28T09:15:37.631Z,100505.63
2023-05-28T09:16:42.809Z,100515.06
2023-05-28T09:17:48.502Z,100508.39
2023-05-28T09:18:55.086Z,100505.39
2023-05-28T09:20:02.189Z,100501.37
2023-05-28T09:21:13.839Z,100513.27
2023-05-28T09:22:20.389Z,100505.08
2023-05-28T09:23:24.962Z,100510.45
2023-05-28T09:24:39.786Z,100511.74
2023-05-28T09:27:14.236Z,100504.16
2023-05-28T09:28:18.987Z,100504.83
2023-05-28T09:29:22.706Z,100505.00
2023-05-28T09:30:26.327Z,100494.91
2023-05-28T09:31:31.193Z,100505.92
2023-05-28T09:32:37.344Z,100503.81
2023-05-28T09:33:46.235Z,100499.21
2023-05-28T09:34:53.421Z,100498.83
2023-05-28T09:36:00.762Z,100506.11
2023-05-28T09:37:05.664Z,100499.50
2023-05-28T09:38:14.345Z,100499.38
2023-05-28T09:39:17.751Z,100506.84
2023-05-28T09:40:21.146Z,100511.71
2023-05-28T09:41:27.686Z,100510.12
2023-05-28T09:42:38.928Z,100507.47
2023-05-28T09:43:42.741Z,100501.31
2023-05-28T09:44:46.549Z,100506.25
2023-05-28T09:45:52.634Z,100504.56
2023-05-28T09:46:56.204Z,100494.89
2023-05-28T09:48:00.064Z,100496.34
2023-05-28T09:49:05.753Z,100508.14
2023-05-28T09:50:09.713Z,100507.53
2023-05-28T09:51:16.656Z,100507.28
2023-05-28T09:52:21.608Z,100510.52
2023-05-28T09:53:25.459Z,100509.67
2023-05-28T09:54:30.324Z,100507.60
2023-05-28T09:55:34.872Z,100513.55
2023-05-28T09:56:42.965Z,100511.63
2023-05-28T09:57:50.637Z,100496.30
2023-05-28T09:58:55.342Z,100495.73
2023-05-28T10:00:01.560Z,100500.70
2023-05-28T10:01:12.479Z,100498.08
2023-05-28T10:02:18.568Z,100502.95
2023-05-28T10:03:24.078Z,100495.54
2023-05-28T10:04:34.978Z,100503.57
2023-05-28T10:05:39.540Z,100503.26
2023-05-28T10:06:43.632Z,100504.98
2023-05-28T10:07:51.134Z,100498.10
2023-05-28T10:08:56.453Z,100497.47
2023-05-28T10:10:01.074Z,100500.51
2023-05-28T10:11:09.377Z,100503.59
2023-05-28T10:12:17.581Z,100501.78
2023-05-28T10:13:20.872Z,100496.83
2023-05-28T10:14:23.486Z,100500.96
2023-05-28T10:15:28.196Z,100497.26
2023-05-28T10:16:32.440Z,100499.44
2023-05-28T10:17:40.042Z,100503.84
2023-05-28T10:18:43.857Z,100507.61
2023-05-28T10:19:50.882Z,100512.41
2023-05-28T10:20:54.496Z,100510.97
2023-05-28T10:21:57.477Z,100511.09
2023-05-28T10:23:01.737Z,100507.34
2023-05-28T10:24:08.976Z,100516.44
2023-05-28T10:25:12.930Z,100513.06
2023-05-28T10:26:17.030Z,100518.69
2023-05-28T10:27:20.643Z,100503.23
2023-05-28T10:28:26.582Z,100502.39
2023-05-28T10:29:32.470Z,100500.71
2023-05-28T10:30:37.809Z,100499.98
2023-05-28T10:31:40.846Z,100492.24
2023-05-28T10:32:44.515Z,100493.37
2023-05-28T10:33:48.305Z,100485.73
2023-05-28T10:34:51.029Z,100493.50
2023-05-28T10:35:57.272Z,100493.09
2023-05-28T10:37:07.994Z,100501.70
2023-05-28T10:38:13.789Z,100501.62
2023-05-28T10:39:19.150Z,100502.83
2023-05-28T10:40:26.616Z,100504.08
2023-05-28T10:41:32.029Z,100508.28
2023-05-28T10:42:36.455Z,100496.42
2023-05-28T10:43:42.026Z,100487.61
2023-05-28T10:44:57.208Z,100489.72
2023-05-28T10:45:59.741Z,100491.06
2023-05-28T10:47:06.349Z,100489.02
2023-05-28T10:48:11.148Z,100483.30
2023-05-28T10:49:17.161Z,100477.76
2023-05-28T10:50:21.748Z,100483.63
2023-05-28T10:51:26.526Z,100495.52
2023-05-28T10:52:32.029Z,100482.80
2023-05-28T10:54:51.462Z,100482.69
2023-05-28T10:55:55.476Z,100488.54
2023-05-28T10:57:24.665Z,100484.37
2023-05-28T10:58:37.969Z,100483.25
2023-05-28T10:59:48.963Z,100489.47
2023-05-28T11:00:53.233Z,100488.05
2023-05-28T11:02:06.468Z,100478.13
2023-05-28T11:03:14.301Z,100495.92
2023-05-28T11:04:17.204Z,100487.59
2023-05-28T11:05:26.003Z,100481.03
2023-05-28T11:06:30.889Z,100492.98
2023-05-28T11:07:35.818Z,100496.98
2023-05-28T11:08:43.352Z,100486.75
2023-05-28T11:09:50.564Z,100494.08
2023-05-28T11:10:57.667Z,100496.67
2023-05-28T11:12:05.387Z,100495.95
2023-05-28T11:13:08.493Z,100486.48
2023-05-28T11:14:13.456Z,100491.72
2023-05-28T11:15:16.941Z,100498.19
2023-05-28T11:16:21.269Z,100493.79
2023-05-28T11:17:27.814Z,100500.42
2023-05-28T11:18:33.436Z,100490.75
2023-05-28T11:19:47.170Z,100499.98
2023-05-28T11:20:53.092Z,100489.53
2023-05-28T11:21:58.612Z,100501.98
2023-05-28T11:23:05.769Z,100492.80
2023-05-28T11:24:09.339Z,100492.55
2023-05-28T11:25:13.468Z,100499.77
2023-05-28T11:26:24.593Z,100498.27
2023-05-28T11:27:30.195Z,100497.83
2023-05-28T11:28:36.308Z,100505.57
2023-05-28T11:29:38.983Z,100502.48
2023-05-28T11:30:44.047Z,100500.33
2023-05-28T11:31:50.899Z,100505.69
2023-05-28T11:32:56.413Z,100496.50
2023-05-28T11:33:59.270Z,100490.89
2023-05-28T11:35:03.178Z,100488.25
2023-05-28T11:36:08.892Z,100492.55
2023-05-28T11:37:12.439Z,100495.52
2023-05-28T11:38:17.681Z,100486.75
2023-05-28T11:39:21.290Z,100491.89
2023-05-28T11:40:24.161Z,100496.20
2023-05-28T11:41:30.410Z,100494.45
2023-05-28T11:42:35.220Z,100485.06
2023-05-28T11:43:39.613Z,100492.28
2023-05-28T11:44:46.667Z,100487.93
2023-05-28T11:45:50.264Z,100492.80
2023-05-28T11:46:56.733Z,100491.72
2023-05-28T11:48:00.330Z,100490.12
2023-05-28T11:49:04.213Z,100494.82
2023-05-28T11:50:14.712Z,100502.48
2023-05-28T11:51:21.674Z,100500.14
2023-05-28T11:52:26.217Z,100500.61
2023-05-28T11:55:06.438Z,100498.27
2023-05-28T11:56:11.200Z,100495.19
2023-05-28T11:57:25.588Z,100492.92
2023-05-28T11:58:35.028Z,100492.58
2023-05-28T11:59:38.416Z,100499.30
2023-05-28T12:00:46.304Z,100498.20
2023-05-28T12:01:52.330Z,100500.38
2023-05-28T12:02:57.198Z,100497.73
2023-05-28T12:04:09.281Z,100490.59
2023-05-28T12:05:14.014Z,100497.53
2023-05-28T12:06:25.993Z,100493.60
2023-05-28T12:07:24.261Z,100493.30
2023-05-28T12:08:27.517Z,100484.78
2023-05-28T12:09:32.765Z,100490.97
2023-05-28T12:10:37.718Z,100484.44
2023-05-28T12:11:42.802Z,100482.37
2023-05-28T12:12:47.541Z,100486.85
2023-05-28T12:13:51.349Z,100486.38
2023-05-28T12:14:55.996Z,100479.27
2023-05-28T12:16:11.116Z,100486.85
2023-05-28T12:17:15.239Z,100489.09
2023-05-28T12:18:21.351Z,100485.28
2023-05-28T12:19:27.882Z,100489.94
2023-05-28T12:20:33.552Z,100495.73
2023-05-28T12:21:40.333Z,100497.42
2023-05-28T12:22:44.853Z,100492.58
2023-05-28T12:23:50.812Z,100491.73
2023-05-28T12:24:56.272Z,100503.09
2023-05-28T12:25:59.305Z,100488.83
2023-05-28T12:27:06.100Z,100495.98
2023-05-28T12:28:09.709Z,100488.30
2023-05-28T12:29:13.320Z,100484.33
2023-05-28T12:30:16.938Z,100487.41
2023-05-28T12:31:22.081Z,100481.80
2023-05-28T12:32:26.237Z,100489.86
2023-05-28T12:33:29.113Z,100479.65
2023-05-28T12:34:32.295Z,100480.09
2023-05-28T12:35:36.076Z,100481.98
2023-05-28T12:36:40.038Z,100483.77